Time;durP1;ratioP1;P1;durP2;ratioP2;P2;SDS_P1;SDS_P2;PMS_P1;PMS_P2;Temp;Humidity;BMP_temperature;BMP_pressure;BME280_temperature;BME280_humidity;BME280_pressure;Samples;Min_cycle;Max_cycle;Signal;HPM_P1;HPM_P2
2023/03/30 00:00:17;;;;;;;29.43;26.50;;;10.70;99.90;;;;;;5034306;28;20431;-75
2023/03/30 00:02:49;;;;;;;26.83;24.33;;;10.70;99.90;;;;;;5034177;28;20434;-74
2023/03/30 00:05:18;;;;;;;28.93;26.40;;;10.70;99.90;;;;;;5034168;28;20423;-75
2023/03/30 00:07:47;;;;;;;28.97;26.23;;;10.70;99.90;;;;;;5016126;28;20445;-74
2023/03/30 00:10:17;;;;;;;26.93;24.30;;;10.70;99.90;;;;;;5015948;28;20455;-75
2023/03/30 00:12:49;;;;;;;26.77;24.37;;;10.70;99.90;;;;;;5033752;28;20514;-75
2023/03/30 00:15:20;;;;;;;26.17;23.73;;;10.70;99.90;;;;;;5033817;28;20423;-75
2023/03/30 00:17:53;;;;;;;25.90;23.40;;;10.70;99.90;;;;;;5015912;28;21047;-75
2023/03/30 00:20:22;;;;;;;26.80;24.30;;;10.70;99.90;;;;;;5033488;28;20415;-75
2023/03/30 00:22:50;;;;;;;26.63;24.23;;;10.70;99.90;;;;;;5015851;28;20474;-74
2023/03/30 00:25:19;;;;;;;25.47;23.17;;;10.70;99.90;;;;;;5033455;28;20430;-74
2023/03/30 00:27:47;;;;;;;25.43;22.80;;;10.60;99.90;;;;;;5015747;28;20447;-75
2023/03/30 00:30:17;;;;;;;26.47;23.87;;;10.60;99.90;;;;;;5033317;28;20525;-75
2023/03/30 00:32:46;;;;;;;25.20;22.90;;;10.70;99.90;;;;;;5033593;28;20776;-75
2023/03/30 00:35:16;;;;;;;25.07;22.57;;;10.60;99.90;;;;;;5032935;28;20455;-75
2023/03/30 00:37:48;;;;;;;24.30;22.00;;;10.60;99.90;;;;;;5015119;28;20470;-74
2023/03/30 00:40:18;;;;;;;24.67;22.13;;;10.60;99.90;;;;;;5015510;28;20473;-75
2023/03/30 00:42:47;;;;;;;24.50;22.30;;;10.60;99.90;;;;;;5033293;28;20477;-75
2023/03/30 00:45:19;;;;;;;25.30;23.10;;;10.60;99.90;;;;;;5015519;28;20446;-74
2023/03/30 00:47:52;;;;;;;23.67;21.57;;;10.70;99.90;;;;;;5033518;28;20482;-75
2023/03/30 00:50:23;;;;;;;25.20;22.90;;;10.60;99.90;;;;;;5015497;28;20474;-75
2023/03/30 00:52:54;;;;;;;24.03;21.90;;;10.60;99.90;;;;;;5015814;28;20451;-75
2023/03/30 00:55:26;;;;;;;24.03;21.93;;;10.60;99.90;;;;;;5033508;28;20423;-74
2023/03/30 00:57:55;;;;;;;22.80;20.73;;;10.60;99.90;;;;;;5015410;28;20470;-75
2023/03/30 01:00:23;;;;;;;24.40;22.30;;;10.60;99.90;;;;;;5015330;28;20451;-75
2023/03/30 01:02:57;;;;;;;24.20;22.07;;;10.60;99.90;;;;;;5015377;28;20492;-75
2023/03/30 01:05:28;;;;;;;23.53;21.33;;;10.60;99.90;;;;;;5033322;28;20449;-74
2023/03/30 01:07:58;;;;;;;23.93;21.83;;;10.50;99.90;;;;;;5033282;28;20422;-75
2023/03/30 01:10:27;;;;;;;23.30;21.10;;;10.50;99.90;;;;;;5015157;28;20438;-75
2023/03/30 01:12:55;;;;;;;23.37;21.37;;;10.50;99.90;;;;;;5015219;28;20522;-74
2023/03/30 01:15:25;;;;;;;22.67;20.50;;;10.50;99.90;;;;;;5015305;28;20439;-74
2023/03/30 01:18:22;;;;;;;21.07;19.27;;;10.50;99.90;;;;;;5032939;28;20716;-74
2023/03/30 01:21:22;;;;;;;21.37;19.07;;;10.50;99.90;;;;;;5015351;28;20569;-74
2023/03/30 01:24:33;;;;;;;22.90;20.43;;;10.50;99.90;;;;;;5033492;28;20478;-74
2023/03/30 01:27:11;;;;;;;22.63;20.67;;;10.50;99.90;;;;;;5015150;28;20475;-74
2023/03/30 01:29:49;;;;;;;22.23;20.23;;;10.40;99.90;;;;;;5033428;28;20419;-74
2023/03/30 01:32:49;;;;;;;21.93;19.83;;;10.40;99.90;;;;;;5015117;28;20553;-74
2023/03/30 01:35:56;;;;;;;22.17;20.03;;;10.40;99.90;;;;;;5014979;28;20459;-74
2023/03/30 01:39:15;;;;;;;20.20;18.30;;;10.40;99.90;;;;;;5014981;28;20499;-74
2023/03/30 01:41:55;;;;;;;20.93;19.00;;;10.40;99.90;;;;;;5015015;28;20876;-74
2023/03/30 01:44:32;;;;;;;21.50;19.50;;;10.40;99.90;;;;;;5033064;28;20423;-74
2023/03/30 01:47:07;;;;;;;21.30;19.30;;;10.40;99.90;;;;;;5015353;28;20924;-74
2023/03/30 01:49:41;;;;;;;20.50;18.70;;;10.30;99.90;;;;;;5036644;28;20425;-74
2023/03/30 01:52:18;;;;;;;21.00;18.97;;;10.30;99.90;;;;;;5018530;28;20466;-74
2023/03/30 01:54:49;;;;;;;21.93;20.03;;;10.30;99.90;;;;;;5018484;28;20913;-74
2023/03/30 01:57:26;;;;;;;20.93;19.13;;;10.30;99.90;;;;;;5036872;28;20423;-74
2023/03/30 01:59:57;;;;;;;19.87;18.00;;;10.30;99.90;;;;;;5024026;28;20550;-74
2023/03/30 02:02:31;;;;;;;20.57;18.77;;;10.30;99.90;;;;;;5021156;28;20808;-74
2023/03/30 02:05:04;;;;;;;20.47;18.50;;;10.30;99.90;;;;;;5018912;28;20538;-74
2023/03/30 02:07:34;;;;;;;19.73;17.90;;;10.30;99.90;;;;;;5018925;28;20849;-74
2023/03/30 02:10:06;;;;;;;20.27;18.27;;;10.40;99.90;;;;;;5018499;28;20501;-74
2023/03/30 02:12:37;;;;;;;21.03;19.17;;;10.30;99.90;;;;;;5018462;28;20574;-74
2023/03/30 02:15:09;;;;;;;20.93;19.13;;;10.30;99.90;;;;;;5018502;28;20439;-74
2023/03/30 02:17:37;;;;;;;19.23;17.50;;;10.30;99.90;;;;;;5018171;28;20489;-74
2023/03/30 02:20:09;;;;;;;19.93;18.13;;;10.30;99.90;;;;;;5035755;28;20475;-74
2023/03/30 02:22:38;;;;;;;19.10;17.20;;;10.40;99.90;;;;;;5017965;28;20520;-74
2023/03/30 02:25:07;;;;;;;18.73;17.03;;;10.30;99.90;;;;;;5035897;28;20446;-74
2023/03/30 02:27:37;;;;;;;18.77;16.90;;;10.40;99.90;;;;;;5017884;28;20446;-74
2023/03/30 02:30:07;;;;;;;18.20;16.40;;;10.30;99.90;;;;;;5017862;28;20451;-74
2023/03/30 02:32:41;;;;;;;18.27;16.53;;;10.30;99.90;;;;;;5017780;28;20471;-74
2023/03/30 02:35:24;;;;;;;18.20;16.50;;;10.40;99.90;;;;;;5017492;28;20466;-74
2023/03/30 02:38:18;;;;;;;18.20;16.50;;;10.30;99.90;;;;;;5017881;28;20438;-74
2023/03/30 02:40:56;;;;;;;18.27;16.60;;;10.40;99.90;;;;;;5017577;28;20892;-74
2023/03/30 02:43:37;;;;;;;17.90;16.27;;;10.40;99.90;;;;;;5035690;28;20770;-74
2023/03/30 02:46:20;;;;;;;16.73;15.23;;;10.40;99.90;;;;;;5017719;28;20454;-74
2023/03/30 02:48:58;;;;;;;18.00;16.30;;;10.40;99.90;;;;;;5017747;28;20454;-74
2023/03/30 02:51:39;;;;;;;16.63;15.13;;;10.40;99.90;;;;;;5017588;28;20482;-74
2023/03/30 02:54:23;;;;;;;16.27;14.67;;;10.40;99.90;;;;;;5035605;28;20415;-74
2023/03/30 02:57:29;;;;;;;14.70;13.40;;;10.40;99.90;;;;;;5031277;28;20434;-74
2023/03/30 03:00:25;;;;;;;14.73;13.40;;;10.30;99.90;;;;;;5016571;28;20462;-74
2023/03/30 03:02:57;;;;;;;15.00;13.60;;;10.40;99.90;;;;;;5017414;28;20478;-74
2023/03/30 03:05:31;;;;;;;15.10;13.70;;;10.40;99.90;;;;;;5017266;28;20539;-74
2023/03/30 03:08:29;;;;;;;17.27;15.47;;;10.40;99.90;;;;;;5032616;28;20482;-73
2023/03/30 03:10:57;;;;;;;16.13;14.30;;;10.40;99.90;;;;;;5017204;28;20478;-74
2023/03/30 03:13:28;;;;;;;15.53;14.03;;;10.40;99.90;;;;;;5017016;28;20486;-74
2023/03/30 03:15:57;;;;;;;16.93;15.17;;;10.40;99.90;;;;;;5017010;28;20455;-74
2023/03/30 03:18:31;;;;;;;15.00;13.47;;;10.40;99.90;;;;;;5017387;28;20990;-74
2023/03/30 03:20:59;;;;;;;16.57;14.97;;;10.40;99.90;;;;;;5016971;28;20467;-74
2023/03/30 03:23:28;;;;;;;17.80;16.10;;;10.40;99.90;;;;;;5016785;28;20854;-74
2023/03/30 03:25:57;;;;;;;15.60;13.80;;;10.40;99.90;;;;;;5016936;28;20458;-74
2023/03/30 03:28:26;;;;;;;13.30;12.10;;;10.40;99.90;;;;;;5016904;28;20450;-74
2023/03/30 03:31:02;;;;;;;13.40;11.97;;;10.40;99.90;;;;;;5016852;28;20513;-74
2023/03/30 03:33:31;;;;;;;13.23;11.93;;;10.40;99.90;;;;;;5016970;28;20439;-74
2023/03/30 03:36:20;;;;;;;13.17;11.90;;;10.50;99.90;;;;;;5034182;28;20968;-74
2023/03/30 03:38:52;;;;;;;13.07;11.57;;;10.50;99.90;;;;;;5016689;28;20559;-74
2023/03/30 03:41:20;;;;;;;11.93;10.60;;;10.50;99.90;;;;;;5016560;28;20463;-74
2023/03/30 03:43:48;;;;;;;11.50;10.17;;;10.50;99.90;;;;;;5034689;28;20486;-74
2023/03/30 03:46:20;;;;;;;11.90;10.60;;;10.50;99.90;;;;;;5016367;28;20852;-74
2023/03/30 03:48:48;;;;;;;12.70;10.60;;;10.60;99.90;;;;;;5016428;28;20447;-74
2023/03/30 03:51:17;;;;;;;10.57;9.33;;;10.60;99.90;;;;;;5016218;28;20464;-74
2023/03/30 03:53:45;;;;;;;11.07;9.77;;;10.60;99.90;;;;;;5033991;28;20443;-74
2023/03/30 03:56:14;;;;;;;11.00;9.83;;;10.70;99.90;;;;;;5016698;28;20565;-74
2023/03/30 03:58:42;;;;;;;11.00;9.80;;;10.70;99.90;;;;;;5016239;28;20865;-74
2023/03/30 04:01:13;;;;;;;10.30;9.20;;;10.80;99.90;;;;;;5033788;28;20988;-74
2023/03/30 04:03:43;;;;;;;12.00;10.37;;;10.80;99.90;;;;;;5034132;28;20506;-74
2023/03/30 04:06:11;;;;;;;10.03;9.07;;;10.80;99.90;;;;;;5033707;28;20434;-74
2023/03/30 04:08:39;;;;;;;12.57;10.20;;;10.80;99.90;;;;;;5016272;28;20454;-74
2023/03/30 04:11:21;;;;;;;11.60;10.17;;;10.80;99.90;;;;;;5016186;28;20475;-74
2023/03/30 04:14:06;;;;;;;12.03;10.20;;;10.90;99.90;;;;;;5016253;28;20833;-74
2023/03/30 04:16:56;;;;;;;9.67;8.60;;;10.90;99.90;;;;;;5034183;28;20450;-74
2023/03/30 04:19:46;;;;;;;9.90;8.63;;;10.90;99.90;;;;;;5012595;28;20554;-74
2023/03/30 04:22:24;;;;;;;9.33;8.33;;;11.00;99.90;;;;;;5015775;28;20470;-74
2023/03/30 04:25:14;;;;;;;10.13;8.27;;;11.00;99.90;;;;;;5022664;28;20458;-74
2023/03/30 04:28:03;;;;;;;11.80;8.70;;;11.00;99.90;;;;;;5033200;28;20525;-74
2023/03/30 04:30:57;;;;;;;9.57;8.67;;;11.10;99.90;;;;;;5032682;28;20491;-74
2023/03/30 04:33:49;;;;;;;11.20;8.20;;;11.10;99.90;;;;;;5033830;28;20490;-74
2023/03/30 04:36:42;;;;;;;9.63;8.57;;;11.10;99.90;;;;;;5033642;28;20766;-74
2023/03/30 04:39:45;;;;;;;11.87;8.70;;;11.10;99.90;;;;;;4972708;28;20485;-74
2023/03/30 04:42:48;;;;;;;9.43;7.57;;;11.00;99.90;;;;;;4979862;28;20445;-74
2023/03/30 04:45:43;;;;;;;9.87;8.10;;;11.10;99.90;;;;;;5015178;28;20447;-74
2023/03/30 04:48:24;;;;;;;9.87;8.40;;;11.10;99.90;;;;;;5033542;28;20518;-74
2023/03/30 04:51:11;;;;;;;15.80;13.20;;;11.10;99.90;;;;;;5033623;28;20450;-74
2023/03/30 04:53:59;;;;;;;8.83;7.20;;;11.10;99.90;;;;;;5033595;28;20926;-74
2023/03/30 04:56:56;;;;;;;9.43;7.60;;;11.10;99.90;;;;;;4979879;28;21020;-74
2023/03/30 04:59:41;;;;;;;9.70;7.47;;;11.20;99.90;;;;;;5015629;28;20474;-74
2023/03/30 05:02:48;;;;;;;9.00;7.53;;;11.10;99.90;;;;;;4972486;28;20990;-74
2023/03/30 05:05:37;;;;;;;9.40;7.77;;;11.20;99.90;;;;;;4972331;28;20454;-73
2023/03/30 05:08:19;;;;;;;11.03;7.37;;;11.10;99.90;;;;;;5005060;28;20446;-74
2023/03/30 05:11:07;;;;;;;8.60;7.43;;;11.20;99.90;;;;;;5033395;28;20455;-74
2023/03/30 05:13:54;;;;;;;8.00;7.03;;;11.20;99.90;;;;;;5015643;28;20455;-73
2023/03/30 05:16:34;;;;;;;8.30;6.60;;;11.20;99.90;;;;;;5033112;28;20423;-74
2023/03/30 05:19:08;;;;;;;10.33;6.67;;;11.20;99.90;;;;;;5033286;28;20431;-73
2023/03/30 05:21:54;;;;;;;11.17;6.23;;;11.30;99.90;;;;;;5015743;28;20459;-73
2023/03/30 05:24:33;;;;;;;8.13;6.30;;;11.20;99.90;;;;;;5037098;28;20423;-73
2023/03/30 05:27:32;;;;;;;8.00;6.30;;;11.30;99.90;;;;;;5013552;28;20952;-74
2023/03/30 05:30:23;;;;;;;8.43;6.50;;;11.30;99.90;;;;;;5029181;28;20474;-73
2023/03/30 05:33:09;;;;;;;9.30;6.17;;;11.40;99.90;;;;;;5040915;28;20450;-74
2023/03/30 05:35:54;;;;;;;10.33;6.13;;;11.40;99.90;;;;;;5019965;28;20457;-73
2023/03/30 05:38:55;;;;;;;8.97;5.53;;;11.40;99.90;;;;;;5020346;28;20542;-73
2023/03/30 05:41:40;;;;;;;9.90;6.20;;;11.40;99.90;;;;;;5018869;28;21007;-74
2023/03/30 05:44:19;;;;;;;10.33;5.50;;;11.50;99.90;;;;;;5018916;28;20447;-74
2023/03/30 05:46:49;;;;;;;7.17;5.43;;;11.40;99.90;;;;;;5036806;28;20427;-73
2023/03/30 05:49:36;;;;;;;7.43;5.60;;;11.50;99.90;;;;;;5036749;28;20974;-73
2023/03/30 05:52:20;;;;;;;10.80;6.57;;;11.50;99.90;;;;;;5018560;28;20516;-73
2023/03/30 05:55:15;;;;;;;12.03;6.60;;;11.50;99.90;;;;;;5018587;28;20829;-73
2023/03/30 05:57:53;;;;;;;10.40;6.00;;;11.50;99.90;;;;;;5018526;28;20509;-73
2023/03/30 06:00:35;;;;;;;8.97;5.93;;;11.50;99.90;;;;;;5018344;28;20494;-74
2023/03/30 06:03:14;;;;;;;9.37;6.10;;;11.50;99.90;;;;;;5018617;28;20497;-74
2023/03/30 06:05:43;;;;;;;7.67;5.90;;;11.60;99.90;;;;;;5018257;28;20861;-74
2023/03/30 06:08:12;;;;;;;7.87;5.80;;;11.60;99.90;;;;;;5018234;28;20449;-73
2023/03/30 06:10:41;;;;;;;7.87;5.80;;;11.60;99.90;;;;;;5018873;28;20478;-74
2023/03/30 06:13:12;;;;;;;7.77;5.63;;;11.70;99.90;;;;;;5018316;28;20424;-74
2023/03/30 06:15:53;;;;;;;7.60;4.70;;;11.70;99.90;;;;;;5018290;28;20443;-74
2023/03/30 06:18:25;;;;;;;9.80;6.23;;;11.70;99.90;;;;;;5018839;28;20439;-74
2023/03/30 06:21:05;;;;;;;8.87;5.77;;;11.70;99.90;;;;;;5018273;28;20492;-74
2023/03/30 06:23:41;;;;;;;10.23;6.10;;;11.80;99.90;;;;;;5018460;28;20788;-74
2023/03/30 06:26:16;;;;;;;8.73;5.37;;;11.80;99.90;;;;;;5018479;28;20820;-75
2023/03/30 06:28:46;;;;;;;8.50;5.80;;;11.80;99.90;;;;;;5018354;28;20451;-74
2023/03/30 06:31:16;;;;;;;9.17;4.97;;;11.90;99.90;;;;;;5018251;28;20799;-74
2023/03/30 06:33:49;;;;;;;7.50;4.83;;;12.00;99.90;;;;;;5017224;28;20454;-74
2023/03/30 06:36:18;;;;;;;6.90;5.00;;;12.00;99.90;;;;;;5017757;28;20809;-73
2023/03/30 06:38:47;;;;;;;6.37;4.77;;;12.10;99.90;;;;;;5018143;28;20454;-74
2023/03/30 06:41:17;;;;;;;7.70;5.30;;;12.20;99.90;;;;;;5017545;28;20482;-74
2023/03/30 06:43:48;;;;;;;6.67;4.93;;;12.20;99.90;;;;;;5018849;28;20435;-74
2023/03/30 06:46:20;;;;;;;8.27;5.07;;;12.30;99.90;;;;;;5017885;28;20462;-74
2023/03/30 06:48:50;;;;;;;10.03;4.50;;;12.30;99.90;;;;;;5017696;28;20450;-74
2023/03/30 06:51:37;;;;;;;7.47;5.67;;;12.30;99.90;;;;;;5035671;28;20542;-74
2023/03/30 06:54:07;;;;;;;6.90;4.63;;;12.40;99.90;;;;;;5017586;28;20461;-74
2023/03/30 06:56:38;;;;;;;8.70;4.80;;;12.40;99.90;;;;;;5017620;28;20443;-74
2023/03/30 06:59:12;;;;;;;8.30;4.70;;;12.50;99.90;;;;;;5017703;28;20509;-74
2023/03/30 07:02:05;;;;;;;8.77;4.57;;;12.50;99.90;;;;;;5034719;28;20510;-75
2023/03/30 07:05:00;;;;;;;8.50;4.87;;;12.50;99.90;;;;;;5031904;28;20447;-75
2023/03/30 07:07:36;;;;;;;6.57;4.70;;;12.60;99.90;;;;;;5017698;28;20449;-75
2023/03/30 07:10:09;;;;;;;8.60;5.47;;;12.50;99.90;;;;;;5017462;28;20975;-74
2023/03/30 07:12:37;;;;;;;8.80;5.27;;;12.60;99.90;;;;;;5017082;28;20471;-74
2023/03/30 07:15:07;;;;;;;10.33;4.90;;;12.60;99.90;;;;;;5017164;28;20960;-75
2023/03/30 07:17:38;;;;;;;6.83;5.10;;;12.70;99.90;;;;;;5017015;28;20458;-75
2023/03/30 07:20:08;;;;;;;8.97;4.90;;;12.70;99.90;;;;;;5016917;28;20453;-75
2023/03/30 07:22:52;;;;;;;10.60;4.70;;;12.70;99.90;;;;;;5016952;28;20545;-74
2023/03/30 07:25:20;;;;;;;7.30;4.50;;;12.80;99.90;;;;;;5016832;28;20458;-74
2023/03/30 07:27:50;;;;;;;7.70;4.70;;;12.80;99.90;;;;;;5017043;28;20451;-73
2023/03/30 07:30:18;;;;;;;7.20;4.80;;;12.90;99.90;;;;;;5016818;28;20482;-74
2023/03/30 07:32:58;;;;;;;6.30;4.00;;;12.90;99.90;;;;;;5016812;28;20450;-73
2023/03/30 07:35:26;;;;;;;8.17;5.17;;;12.90;99.90;;;;;;5016625;28;20458;-74
2023/03/30 07:37:56;;;;;;;6.37;3.97;;;13.00;99.90;;;;;;5017035;28;20956;-74
2023/03/30 07:40:35;;;;;;;7.90;4.00;;;13.10;99.90;;;;;;5016503;28;20612;-74
2023/03/30 07:43:05;;;;;;;7.43;4.73;;;13.10;99.90;;;;;;5016706;28;20497;-74
2023/03/30 07:45:34;;;;;;;7.27;4.30;;;13.20;99.90;;;;;;5016126;28;20455;-74
2023/03/30 07:48:06;;;;;;;6.23;3.87;;;13.30;99.90;;;;;;5016685;28;20454;-74
2023/03/30 07:50:35;;;;;;;6.57;4.23;;;13.40;99.90;;;;;;5016612;28;20557;-75
2023/03/30 07:53:04;;;;;;;7.67;3.97;;;13.40;99.90;;;;;;5016352;28;20454;-74
2023/03/30 07:55:32;;;;;;;6.73;4.07;;;13.50;99.90;;;;;;5016314;28;20478;-74
2023/03/30 07:58:10;;;;;;;8.33;4.40;;;13.60;99.90;;;;;;5016477;28;20451;-74
2023/03/30 08:00:38;;;;;;;5.90;4.00;;;13.70;99.90;;;;;;5033771;28;20874;-74
2023/03/30 08:03:31;;;;;;;5.47;3.50;;;13.70;99.90;;;;;;5025621;28;20815;-74
2023/03/30 08:06:03;;;;;;;6.13;3.70;;;13.80;99.90;;;;;;5016125;28;20443;-75
2023/03/30 08:08:37;;;;;;;7.67;3.70;;;13.90;99.90;;;;;;5016955;28;20493;-74
2023/03/30 08:11:07;;;;;;;6.20;4.27;;;13.90;99.90;;;;;;5015946;28;20463;-74
2023/03/30 08:13:36;;;;;;;10.10;4.93;;;13.90;99.90;;;;;;5033652;28;20439;-75
2023/03/30 08:16:07;;;;;;;8.77;4.50;;;13.90;99.90;;;;;;5033795;28;20473;-74
2023/03/30 08:18:37;;;;;;;5.80;4.07;;;14.00;99.90;;;;;;5033690;28;20477;-74
2023/03/30 08:21:05;;;;;;;8.07;3.80;;;14.00;99.90;;;;;;5033434;28;20463;-75
2023/03/30 08:23:34;;;;;;;6.93;3.83;;;14.10;99.90;;;;;;5033581;28;20849;-75
2023/03/30 08:26:02;;;;;;;8.47;4.37;;;14.10;99.90;;;;;;5033577;28;20530;-75
2023/03/30 08:28:30;;;;;;;6.37;4.17;;;14.10;99.90;;;;;;5033742;28;20446;-74
2023/03/30 08:31:04;;;;;;;6.20;3.40;;;14.10;99.90;;;;;;5033936;28;20504;-74
2023/03/30 08:33:33;;;;;;;5.40;3.40;;;14.20;99.90;;;;;;5015861;28;20534;-74
2023/03/30 08:36:03;;;;;;;4.77;3.30;;;14.30;99.90;;;;;;5033329;28;20955;-74
2023/03/30 08:38:31;;;;;;;6.20;3.30;;;14.40;99.90;;;;;;5015662;28;20439;-74
2023/03/30 08:41:00;;;;;;;5.17;3.30;;;14.60;99.90;;;;;;5033483;28;21010;-74
2023/03/30 08:43:45;;;;;;;6.73;3.30;;;14.60;99.90;;;;;;5033486;28;20928;-74
2023/03/30 08:46:16;;;;;;;5.10;3.13;;;14.70;99.90;;;;;;5033579;28;20419;-75
2023/03/30 08:48:46;;;;;;;6.70;3.33;;;14.70;99.90;;;;;;5033350;28;20420;-74
2023/03/30 08:51:24;;;;;;;6.87;3.83;;;14.70;99.90;;;;;;5033449;28;20462;-75
2023/03/30 08:53:56;;;;;;;6.33;4.33;;;14.90;99.90;;;;;;5033207;28;20419;-75
2023/03/30 08:56:27;;;;;;;7.53;3.03;;;15.00;99.90;;;;;;5033493;28;20419;-75
2023/03/30 08:59:04;;;;;;;7.10;3.47;;;15.20;99.90;;;;;;5036785;28;20758;-74
2023/03/30 09:01:41;;;;;;;7.90;2.83;;;15.30;99.90;;;;;;5022141;28;20513;-74
2023/03/30 09:04:20;;;;;;;7.17;3.40;;;15.50;99.90;;;;;;5040519;28;20455;-75
2023/03/30 09:06:52;;;;;;;7.27;3.20;;;15.60;99.90;;;;;;5038654;28;20830;-74
2023/03/30 09:09:23;;;;;;;9.87;4.53;;;15.60;99.90;;;;;;5037883;28;20420;-74
2023/03/30 09:11:57;;;;;;;7.50;3.40;;;15.80;99.90;;;;;;5037590;28;20485;-74
2023/03/30 09:14:32;;;;;;;5.33;3.00;;;15.80;99.90;;;;;;5037513;28;20437;-74
2023/03/30 09:17:07;;;;;;;10.20;3.53;;;15.90;99.90;;;;;;5037086;28;20449;-74
2023/03/30 09:19:40;;;;;;;7.03;3.10;;;16.00;99.90;;;;;;5019278;28;20487;-74
2023/03/30 09:22:14;;;;;;;8.40;3.37;;;16.10;99.90;;;;;;5036951;28;20475;-74
2023/03/30 09:24:42;;;;;;;6.40;2.63;;;16.10;99.90;;;;;;5037298;28;20774;-74
2023/03/30 09:27:18;;;;;;;7.17;2.73;;;16.20;99.90;;;;;;5037002;28;20864;-74
2023/03/30 09:29:50;;;;;;;6.73;2.70;;;16.20;99.90;;;;;;5037304;28;20484;-74
2023/03/30 09:32:26;;;;;;;6.90;2.87;;;16.20;99.90;;;;;;5036735;28;20483;-75
2023/03/30 09:35:00;;;;;;;7.67;2.70;;;16.30;99.90;;;;;;5036766;28;20454;-74
2023/03/30 09:37:30;;;;;;;6.97;2.60;;;16.30;99.90;;;;;;5036917;28;20854;-75
2023/03/30 09:39:58;;;;;;;8.90;3.20;;;16.40;99.90;;;;;;5037217;28;20959;-74
2023/03/30 09:42:34;;;;;;;8.03;3.23;;;16.40;99.90;;;;;;5018737;28;20471;-74
2023/03/30 09:45:11;;;;;;;7.00;2.47;;;16.50;99.90;;;;;;5037073;28;20491;-74
2023/03/30 09:48:01;;;;;;;6.97;2.83;;;16.50;99.90;;;;;;5036666;28;20427;-74
2023/03/30 09:50:44;;;;;;;9.90;3.00;;;16.40;99.90;;;;;;5018673;28;20474;-74
2023/03/30 09:53:24;;;;;;;8.57;3.00;;;16.40;99.90;;;;;;5018636;28;20443;-74
2023/03/30 09:56:00;;;;;;;6.97;2.67;;;16.40;99.90;;;;;;5018566;28;21133;-74
2023/03/30 09:58:30;;;;;;;8.90;2.90;;;16.50;99.90;;;;;;5036350;28;20862;-74
2023/03/30 10:01:05;;;;;;;10.63;2.97;;;16.50;99.90;;;;;;5036667;28;20455;-74
2023/03/30 10:03:34;;;;;;;6.40;2.70;;;16.60;99.90;;;;;;5036267;28;20508;-74
2023/03/30 10:06:07;;;;;;;8.70;3.57;;;16.70;99.90;;;;;;5036326;28;20458;-74
2023/03/30 10:08:42;;;;;;;6.97;2.83;;;16.70;99.90;;;;;;5018321;28;20446;-74
2023/03/30 10:11:11;;;;;;;8.20;3.27;;;16.60;99.90;;;;;;5035990;28;20450;-74
2023/03/30 10:13:42;;;;;;;6.70;2.63;;;16.60;99.90;;;;;;5035994;28;20497;-74
2023/03/30 10:16:22;;;;;;;7.33;2.90;;;16.50;99.90;;;;;;5035992;28;20458;-74
2023/03/30 10:18:54;;;;;;;7.70;2.90;;;16.50;99.90;;;;;;5035841;28;20510;-74
2023/03/30 10:21:25;;;;;;;6.27;2.77;;;16.40;99.90;;;;;;5035774;28;20820;-74
2023/03/30 10:24:07;;;;;;;6.10;2.50;;;16.40;99.90;;;;;;5017962;28;20496;-74
2023/03/30 10:26:37;;;;;;;7.63;3.03;;;16.40;99.90;;;;;;5018184;28;20438;-74
2023/03/30 10:29:09;;;;;;;7.03;2.60;;;16.30;99.90;;;;;;5036408;28;20419;-74
2023/03/30 10:31:39;;;;;;;5.83;2.43;;;16.20;99.90;;;;;;5035846;28;20450;-74
2023/03/30 10:34:16;;;;;;;5.80;2.67;;;16.10;99.90;;;;;;5036015;28;20514;-74
2023/03/30 10:36:47;;;;;;;6.53;3.13;;;16.00;99.90;;;;;;5017989;28;20485;-74
2023/03/30 10:39:23;;;;;;;6.70;2.50;;;15.90;99.90;;;;;;5035744;28;20459;-74
2023/03/30 10:41:54;;;;;;;5.90;2.37;;;15.70;99.90;;;;;;5035363;28;20455;-74
2023/03/30 10:44:31;;;;;;;6.67;2.97;;;15.60;99.90;;;;;;5035638;28;20455;-74
2023/03/30 10:47:10;;;;;;;7.03;2.87;;;15.50;99.90;;;;;;5035613;28;20434;-74
2023/03/30 10:49:45;;;;;;;6.87;2.80;;;15.50;99.90;;;;;;5035364;28;20506;-74
2023/03/30 10:52:21;;;;;;;9.00;2.73;;;15.40;99.90;;;;;;5035317;28;20425;-74
2023/03/30 10:54:57;;;;;;;7.37;2.43;;;15.40;99.90;;;;;;5035540;28;20438;-74
2023/03/30 10:57:37;;;;;;;8.37;2.57;;;15.40;99.90;;;;;;5035262;28;20457;-74
2023/03/30 11:00:30;;;;;;;5.83;2.30;;;15.40;99.90;;;;;;5017365;28;20541;-74
2023/03/30 11:03:06;;;;;;;9.13;2.90;;;15.40;99.90;;;;;;5034893;28;20820;-74
2023/03/30 11:05:39;;;;;;;7.50;2.60;;;15.50;99.90;;;;;;5035252;28;20423;-74
2023/03/30 11:08:12;;;;;;;10.40;3.00;;;15.40;99.90;;;;;;5034902;28;20446;-74
2023/03/30 11:10:45;;;;;;;7.57;3.43;;;15.40;99.90;;;;;;5017197;28;20474;-74
2023/03/30 11:13:18;;;;;;;8.63;2.67;;;15.40;99.90;;;;;;5017111;28;20526;-74
2023/03/30 11:15:51;;;;;;;9.87;3.40;;;15.50;99.90;;;;;;5017176;28;20450;-73
2023/03/30 11:18:24;;;;;;;6.13;2.80;;;15.60;99.90;;;;;;5034773;28;20525;-74
2023/03/30 11:20:58;;;;;;;11.17;2.90;;;15.60;99.90;;;;;;5016362;28;20467;-74
2023/03/30 11:23:37;;;;;;;9.97;3.10;;;15.70;99.90;;;;;;5016788;28;20458;-73
2023/03/30 11:26:11;;;;;;;7.33;2.80;;;15.70;99.90;;;;;;5034974;28;20419;-74
2023/03/30 11:28:55;;;;;;;10.73;3.00;;;15.70;99.90;;;;;;5034714;28;20502;-75
2023/03/30 11:31:38;;;;;;;10.07;4.67;;;15.60;99.90;;;;;;5034587;28;20517;-75
2023/03/30 11:34:16;;;;;;;7.33;2.80;;;15.60;99.90;;;;;;5034590;28;20445;-75
2023/03/30 11:36:51;;;;;;;7.83;2.53;;;15.50;99.90;;;;;;5034490;28;20423;-75
2023/03/30 11:39:24;;;;;;;11.37;3.90;;;15.40;99.90;;;;;;5034683;28;20457;-74
2023/03/30 11:42:07;;;;;;;11.40;3.63;;;15.30;99.90;;;;;;5016559;28;20870;-75
2023/03/30 11:44:36;;;;;;;7.93;2.97;;;15.30;99.90;;;;;;5034555;28;20462;-75
2023/03/30 11:47:24;;;;;;;11.40;3.40;;;15.20;99.90;;;;;;5034245;28;20501;-75
2023/03/30 11:50:06;;;;;;;10.77;3.03;;;15.20;99.90;;;;;;5016779;28;20473;-75
2023/03/30 11:52:40;;;;;;;12.53;3.17;;;15.20;99.90;;;;;;5034208;28;20822;-75
2023/03/30 11:55:32;;;;;;;14.97;4.50;;;15.20;99.90;;;;;;5016580;28;20448;-74
2023/03/30 11:58:21;;;;;;;12.13;3.70;;;15.10;99.90;;;;;;5016310;28;20539;-74
2023/03/30 12:01:00;;;;;;;13.37;3.97;;;15.10;99.90;;;;;;5034158;28;20483;-75
2023/03/30 12:03:36;;;;;;;7.40;3.57;;;15.10;99.90;;;;;;5034400;28;20455;-75
2023/03/30 12:06:29;;;;;;;10.97;3.93;;;15.10;99.90;;;;;;5033975;28;20431;-74
2023/03/30 12:09:21;;;;;;;9.63;3.73;;;15.20;99.90;;;;;;5016475;28;20963;-75
2023/03/30 12:11:54;;;;;;;12.57;3.83;;;15.30;99.90;;;;;;5034016;28;20454;-74
2023/03/30 12:14:44;;;;;;;15.30;3.33;;;15.40;99.90;;;;;;5034574;28;20537;-74
2023/03/30 12:17:24;;;;;;;9.43;3.63;;;15.40;99.90;;;;;;5034105;28;20423;-75
2023/03/30 12:19:57;;;;;;;9.70;3.40;;;15.40;99.90;;;;;;5015952;28;20450;-75
2023/03/30 12:22:33;;;;;;;10.60;2.90;;;15.30;99.90;;;;;;5033878;28;20462;-74
2023/03/30 12:25:14;;;;;;;9.17;2.50;;;15.20;99.90;;;;;;5033873;28;20485;-75
2023/03/30 12:28:02;;;;;;;8.27;3.17;;;15.20;99.90;;;;;;5034014;28;20787;-75
2023/03/30 12:30:43;;;;;;;9.07;3.40;;;15.10;99.90;;;;;;5033654;28;20766;-76
2023/03/30 12:33:13;;;;;;;10.13;3.60;;;15.00;99.90;;;;;;5035919;28;20835;-75
2023/03/30 12:35:56;;;;;;;8.83;3.17;;;15.00;99.90;;;;;;5016375;28;20455;-75
2023/03/30 12:38:26;;;;;;;8.77;2.87;;;15.00;99.90;;;;;;5016295;28;20447;-75
2023/03/30 12:41:04;;;;;;;8.93;2.90;;;15.00;99.90;;;;;;5015867;28;20466;-75
2023/03/30 12:43:41;;;;;;;9.53;2.50;;;15.10;99.90;;;;;;5033393;28;20455;-75
2023/03/30 12:46:24;;;;;;;7.77;2.50;;;15.20;99.90;;;;;;5033755;28;20493;-76
2023/03/30 12:49:00;;;;;;;9.10;2.07;;;15.30;99.90;;;;;;5015888;28;20470;-76
2023/03/30 12:51:52;;;;;;;8.47;2.70;;;15.50;99.90;;;;;;5033208;28;20555;-76
2023/03/30 12:54:52;;;;;;;8.20;2.87;;;15.60;99.90;;;;;;5033265;28;20446;-76
2023/03/30 12:57:37;;;;;;;8.70;1.90;;;15.80;99.90;;;;;;5033222;28;20470;-76
2023/03/30 13:00:36;;;;;;;7.33;2.67;;;15.90;99.90;;;;;;5033465;28;20456;-74
2023/03/30 13:03:35;;;;;;;7.77;2.77;;;16.00;99.90;;;;;;5033176;28;20804;-76
2023/03/30 13:06:05;;;;;;;8.57;2.00;;;16.00;99.90;;;;;;5016265;28;20454;-75
2023/03/30 13:08:38;;;;;;;8.27;2.30;;;16.00;99.90;;;;;;5033895;28;20423;-75
2023/03/30 13:11:14;;;;;;;8.27;2.60;;;16.00;99.90;;;;;;5032996;28;20556;-76
2023/03/30 13:13:53;;;;;;;6.07;2.47;;;16.00;99.90;;;;;;5015525;28;20434;-76
2023/03/30 13:17:04;;;;;;;7.73;3.00;;;16.00;99.90;;;;;;5033386;28;20454;-76
2023/03/30 13:19:50;;;;;;;7.87;2.60;;;16.00;99.90;;;;;;5018863;28;20541;-75
2023/03/30 13:22:26;;;;;;;11.03;3.07;;;15.90;99.90;;;;;;5032958;28;20446;-75
2023/03/30 13:24:57;;;;;;;6.27;2.10;;;15.80;99.90;;;;;;5032917;28;20505;-75
2023/03/30 13:27:30;;;;;;;8.90;3.10;;;15.80;99.90;;;;;;5033215;28;20962;-75